KAC113 OBBI-OKKK
Flight info
| Callsign | KAC113 |
|---|---|
| Flight time | 0h 51m |
| Altitude | 24000 |
| Route | BHR A453 DEBTI |
| Aircraft | A320/M-SDE3FGHIRWY/LB1 |
Departure
| Time | 2026-04-28 13:14 |
|---|---|
| Airport | Bahrain International Airport (OBBI) |
Arrival
| Time | 2026-04-28 14:05 |
|---|---|
| Airport | Kuwait International Airport (OKKK) |
| Time | Latitude | Longitude | Altitude | Speed | Heading |
|---|---|---|---|---|---|
| 2026-04-28 12:40 | 26.26927 | 50.62846 | 21 ft | 0 kts | 213° |
| 2026-04-28 12:59 | 26.26938 | 50.62855 | 23 ft | 4 kts | 212° |
| 2026-04-28 12:59 | 26.26961 | 50.62870 | 22 ft | 4 kts | 210° |
| 2026-04-28 12:59 | 26.26985 | 50.62885 | 21 ft | 4 kts | 206° |
| 2026-04-28 13:00 | 26.27010 | 50.62896 | 21 ft | 4 kts | 186° |
| 2026-04-28 13:00 | 26.27025 | 50.62896 | 22 ft | 4 kts | 146° |
| 2026-04-28 13:00 | 26.27031 | 50.62891 | 22 ft | 0 kts | 121° |
| 2026-04-28 13:03 | 26.27018 | 50.62914 | 22 ft | 8 kts | 123° |
| 2026-04-28 13:03 | 26.26979 | 50.62980 | 22 ft | 13 kts | 123° |
| 2026-04-28 13:03 | 26.26926 | 50.63072 | 22 ft | 14 kts | 123° |
| 2026-04-28 13:03 | 26.26932 | 50.63156 | 20 ft | 13 kts | 38° |
| 2026-04-28 13:04 | 26.26953 | 50.63234 | 21 ft | 12 kts | 120° |
| 2026-04-28 13:04 | 26.26907 | 50.63309 | 19 ft | 12 kts | 123° |
| 2026-04-28 13:04 | 26.26862 | 50.63388 | 21 ft | 13 kts | 122° |
| 2026-04-28 13:04 | 26.26810 | 50.63478 | 21 ft | 15 kts | 122° |
| 2026-04-28 13:05 | 26.26754 | 50.63577 | 23 ft | 15 kts | 122° |
| 2026-04-28 13:05 | 26.26696 | 50.63679 | 22 ft | 16 kts | 122° |
| 2026-04-28 13:05 | 26.26633 | 50.63790 | 22 ft | 18 kts | 122° |
| 2026-04-28 13:05 | 26.26565 | 50.63908 | 22 ft | 19 kts | 122° |
| 2026-04-28 13:06 | 26.26494 | 50.64035 | 21 ft | 20 kts | 123° |
| 2026-04-28 13:06 | 26.26412 | 50.64170 | 20 ft | 22 kts | 123° |
| 2026-04-28 13:06 | 26.26328 | 50.64318 | 20 ft | 23 kts | 122° |
| 2026-04-28 13:06 | 26.26238 | 50.64475 | 19 ft | 24 kts | 123° |
| 2026-04-28 13:07 | 26.26145 | 50.64635 | 21 ft | 25 kts | 122° |
| 2026-04-28 13:07 | 26.26061 | 50.64779 | 20 ft | 17 kts | 123° |
| 2026-04-28 13:07 | 26.26033 | 50.64829 | 21 ft | 3 kts | 122° |
| 2026-04-28 13:07 | 26.26026 | 50.64842 | 21 ft | 1 kts | 117° |
| 2026-04-28 13:08 | 26.26025 | 50.64844 | 21 ft | 0 kts | 116° |
| 2026-04-28 13:09 | 26.26024 | 50.64846 | 21 ft | 3 kts | 116° |
| 2026-04-28 13:10 | 26.26018 | 50.64863 | 23 ft | 2 kts | 108° |
| 2026-04-28 13:10 | 26.26022 | 50.64922 | 22 ft | 12 kts | 71° |
| 2026-04-28 13:10 | 26.26034 | 50.64945 | 20 ft | 0 kts | 54° |
| 2026-04-28 13:11 | 26.26038 | 50.64950 | 20 ft | 5 kts | 50° |
| 2026-04-28 13:11 | 26.26079 | 50.64987 | 19 ft | 10 kts | 33° |
| 2026-04-28 13:11 | 26.26135 | 50.65004 | 19 ft | 6 kts | 332° |
| 2026-04-28 13:12 | 26.26146 | 50.64990 | 18 ft | 0 kts | 303° |
| 2026-04-28 13:13 | 26.26242 | 50.64824 | 18 ft | 63 kts | 303° |
| 2026-04-28 13:13 | 26.26603 | 50.64196 | 17 ft | 126 kts | 302° |
| 2026-04-28 13:14 | 26.27175 | 50.63210 | 19 ft | 174 kts | 303° |
| 2026-04-28 13:14 | 26.27839 | 50.62059 | 627 ft | 172 kts | 306° |
| 2026-04-28 13:14 | 26.28505 | 50.60960 | 1316 ft | 175 kts | 314° |
| 2026-04-28 13:14 | 26.29577 | 50.60226 | 1601 ft | 192 kts | 342° |
| 2026-04-28 13:15 | 26.30928 | 50.59797 | 1781 ft | 212 kts | 347° |
| 2026-04-28 13:15 | 26.32449 | 50.59410 | 2049 ft | 237 kts | 347° |
| 2026-04-28 13:15 | 26.34152 | 50.59055 | 2446 ft | 261 kts | 347° |
| 2026-04-28 13:15 | 26.35970 | 50.58602 | 3097 ft | 272 kts | 343° |
| 2026-04-28 13:16 | 26.37825 | 50.58067 | 3899 ft | 278 kts | 342° |
| 2026-04-28 13:16 | 26.39710 | 50.57499 | 4659 ft | 283 kts | 341° |
| 2026-04-28 13:16 | 26.41622 | 50.56922 | 5433 ft | 287 kts | 341° |
| 2026-04-28 13:16 | 26.43569 | 50.56339 | 6199 ft | 291 kts | 340° |
| 2026-04-28 13:17 | 26.45546 | 50.55751 | 6773 ft | 297 kts | 341° |
| 2026-04-28 13:17 | 26.47546 | 50.55164 | 6988 ft | 298 kts | 341° |
| 2026-04-28 13:17 | 26.49528 | 50.54586 | 7673 ft | 299 kts | 341° |
| 2026-04-28 13:17 | 26.51548 | 50.53997 | 8466 ft | 301 kts | 340° |
| 2026-04-28 13:18 | 26.53582 | 50.53405 | 9267 ft | 303 kts | 340° |
| 2026-04-28 13:18 | 26.55613 | 50.52818 | 10148 ft | 302 kts | 340° |
| 2026-04-28 13:18 | 26.57716 | 50.52201 | 10394 ft | 324 kts | 340° |
| 2026-04-28 13:18 | 26.59970 | 50.51528 | 10562 ft | 347 kts | 340° |
| 2026-04-28 13:19 | 26.62362 | 50.50816 | 10933 ft | 360 kts | 341° |
| 2026-04-28 13:19 | 26.64802 | 50.50098 | 11550 ft | 364 kts | 341° |
| 2026-04-28 13:19 | 26.67264 | 50.49380 | 12220 ft | 367 kts | 340° |
| 2026-04-28 13:19 | 26.69643 | 50.48371 | 12893 ft | 365 kts | 329° |
| 2026-04-28 13:20 | 26.71789 | 50.46867 | 13575 ft | 363 kts | 318° |
| 2026-04-28 13:20 | 26.73667 | 50.44977 | 14187 ft | 363 kts | 313° |
| 2026-04-28 13:20 | 26.75506 | 50.43028 | 14830 ft | 365 kts | 313° |
| 2026-04-28 13:20 | 26.77355 | 50.41073 | 15476 ft | 366 kts | 312° |
| 2026-04-28 13:21 | 26.79201 | 50.39125 | 16335 ft | 358 kts | 312° |
| 2026-04-28 13:21 | 26.80969 | 50.37270 | 17645 ft | 340 kts | 311° |
| 2026-04-28 13:21 | 26.82677 | 50.35474 | 18515 ft | 335 kts | 311° |
| 2026-04-28 13:21 | 26.84376 | 50.33676 | 19084 ft | 337 kts | 310° |
| 2026-04-28 13:22 | 26.86081 | 50.31864 | 19574 ft | 340 kts | 310° |
| 2026-04-28 13:22 | 26.87808 | 50.30026 | 20058 ft | 344 kts | 310° |
| 2026-04-28 13:22 | 26.89551 | 50.28167 | 20537 ft | 348 kts | 309° |
| 2026-04-28 13:22 | 26.91291 | 50.26310 | 21009 ft | 351 kts | 309° |
| 2026-04-28 13:23 | 26.93071 | 50.24413 | 21479 ft | 355 kts | 309° |
| 2026-04-28 13:23 | 26.94875 | 50.22494 | 21944 ft | 359 kts | 308° |
| 2026-04-28 13:23 | 26.96697 | 50.20555 | 22405 ft | 362 kts | 308° |
| 2026-04-28 13:23 | 26.98533 | 50.18604 | 22851 ft | 366 kts | 308° |
| 2026-04-28 13:24 | 27.00394 | 50.16625 | 23285 ft | 370 kts | 308° |
| 2026-04-28 13:24 | 27.02272 | 50.14627 | 23636 ft | 374 kts | 308° |
| 2026-04-28 13:24 | 27.04160 | 50.12620 | 23760 ft | 374 kts | 308° |
| 2026-04-28 13:24 | 27.05907 | 50.10493 | 23795 ft | 369 kts | 302° |
| 2026-04-28 13:25 | 27.07575 | 50.08306 | 23792 ft | 368 kts | 302° |
| 2026-04-28 13:25 | 27.09240 | 50.06114 | 23803 ft | 369 kts | 302° |
| 2026-04-28 13:25 | 27.10906 | 50.03919 | 23791 ft | 370 kts | 302° |
| 2026-04-28 13:25 | 27.12558 | 50.01746 | 23795 ft | 370 kts | 303° |
| 2026-04-28 13:26 | 27.14231 | 49.99547 | 23791 ft | 370 kts | 303° |
| 2026-04-28 13:26 | 27.15904 | 49.97347 | 23795 ft | 370 kts | 303° |
| 2026-04-28 13:26 | 27.17575 | 49.95145 | 23781 ft | 371 kts | 303° |
| 2026-04-28 13:26 | 27.19247 | 49.92942 | 23786 ft | 371 kts | 303° |
| 2026-04-28 13:27 | 27.20919 | 49.90737 | 23787 ft | 371 kts | 303° |
| 2026-04-28 13:27 | 27.22592 | 49.88532 | 23788 ft | 371 kts | 303° |
| 2026-04-28 13:27 | 27.24266 | 49.86325 | 23778 ft | 371 kts | 303° |
| 2026-04-28 13:27 | 27.25937 | 49.84121 | 23776 ft | 371 kts | 303° |
| 2026-04-28 13:28 | 27.27609 | 49.81913 | 23784 ft | 371 kts | 303° |
| 2026-04-28 13:28 | 27.29278 | 49.79706 | 23783 ft | 371 kts | 303° |
| 2026-04-28 13:28 | 27.30951 | 49.77494 | 23778 ft | 371 kts | 303° |
| 2026-04-28 13:28 | 27.32618 | 49.75285 | 23777 ft | 371 kts | 303° |
| 2026-04-28 13:29 | 27.34288 | 49.73071 | 23783 ft | 371 kts | 302° |
| 2026-04-28 13:29 | 27.35958 | 49.70851 | 23782 ft | 371 kts | 302° |
| 2026-04-28 13:29 | 27.37626 | 49.68640 | 23770 ft | 371 kts | 303° |
| 2026-04-28 13:29 | 27.39298 | 49.66429 | 23769 ft | 371 kts | 303° |
| 2026-04-28 13:30 | 27.40974 | 49.64213 | 23782 ft | 371 kts | 303° |
| 2026-04-28 13:30 | 27.42646 | 49.62001 | 23778 ft | 371 kts | 303° |
| 2026-04-28 13:30 | 27.44298 | 49.59805 | 23765 ft | 372 kts | 303° |
| 2026-04-28 13:30 | 27.45964 | 49.57588 | 23762 ft | 372 kts | 303° |
| 2026-04-28 13:31 | 27.49594 | 49.53373 | 23763 ft | 381 kts | 314° |
| 2026-04-28 13:31 | 27.51682 | 49.51517 | 23756 ft | 382 kts | 314° |
| 2026-04-28 13:31 | 27.53763 | 49.49662 | 23757 ft | 382 kts | 314° |
| 2026-04-28 13:32 | 27.55849 | 49.47797 | 23756 ft | 382 kts | 313° |
| 2026-04-28 13:32 | 27.57927 | 49.45934 | 23763 ft | 382 kts | 314° |
| 2026-04-28 13:32 | 27.60011 | 49.44063 | 23750 ft | 383 kts | 314° |
| 2026-04-28 13:32 | 27.62090 | 49.42195 | 23744 ft | 383 kts | 314° |
| 2026-04-28 13:33 | 27.64176 | 49.40322 | 23749 ft | 383 kts | 314° |
| 2026-04-28 13:33 | 27.66263 | 49.38448 | 23740 ft | 383 kts | 314° |
| 2026-04-28 13:33 | 27.68347 | 49.36575 | 23748 ft | 383 kts | 314° |
| 2026-04-28 13:33 | 27.70433 | 49.34701 | 23747 ft | 384 kts | 314° |
| 2026-04-28 13:34 | 27.72524 | 49.32823 | 23751 ft | 384 kts | 314° |
| 2026-04-28 13:34 | 27.74615 | 49.30945 | 23760 ft | 384 kts | 314° |
| 2026-04-28 13:34 | 27.76700 | 49.29070 | 23768 ft | 384 kts | 313° |
| 2026-04-28 13:34 | 27.78787 | 49.27189 | 23767 ft | 384 kts | 313° |
| 2026-04-28 13:35 | 27.80874 | 49.25306 | 23761 ft | 383 kts | 313° |
| 2026-04-28 13:35 | 27.82957 | 49.23423 | 23755 ft | 383 kts | 313° |
| 2026-04-28 13:35 | 27.85012 | 49.21567 | 23752 ft | 383 kts | 313° |
| 2026-04-28 13:35 | 27.87113 | 49.19702 | 23755 ft | 386 kts | 316° |
| 2026-04-28 13:36 | 27.89406 | 49.18069 | 23756 ft | 391 kts | 322° |
| 2026-04-28 13:36 | 27.91766 | 49.16533 | 23768 ft | 391 kts | 322° |
| 2026-04-28 13:36 | 27.94122 | 49.14996 | 23771 ft | 391 kts | 322° |
| 2026-04-28 13:36 | 27.96478 | 49.13455 | 23767 ft | 391 kts | 322° |
| 2026-04-28 13:37 | 27.98833 | 49.11908 | 23764 ft | 391 kts | 322° |
| 2026-04-28 13:37 | 28.01186 | 49.10362 | 23767 ft | 391 kts | 322° |
| 2026-04-28 13:37 | 28.03537 | 49.08821 | 23767 ft | 391 kts | 322° |
| 2026-04-28 13:37 | 28.05894 | 49.07275 | 23765 ft | 391 kts | 322° |
| 2026-04-28 13:38 | 28.08236 | 49.05736 | 23635 ft | 387 kts | 322° |
| 2026-04-28 13:38 | 28.10557 | 49.04209 | 23176 ft | 384 kts | 322° |
| 2026-04-28 13:38 | 28.12861 | 49.02690 | 22651 ft | 381 kts | 322° |
| 2026-04-28 13:38 | 28.15145 | 49.01187 | 22279 ft | 375 kts | 322° |
| 2026-04-28 13:39 | 28.17349 | 48.99741 | 22036 ft | 367 kts | 322° |
| 2026-04-28 13:39 | 28.19542 | 48.98303 | 21659 ft | 362 kts | 322° |
| 2026-04-28 13:39 | 28.21709 | 48.96875 | 21251 ft | 359 kts | 322° |
| 2026-04-28 13:39 | 28.23873 | 48.95437 | 20594 ft | 363 kts | 322° |
| 2026-04-28 13:40 | 28.26052 | 48.93987 | 20087 ft | 363 kts | 322° |
| 2026-04-28 13:40 | 28.28258 | 48.92529 | 19641 ft | 361 kts | 323° |
| 2026-04-28 13:40 | 28.30431 | 48.91098 | 19200 ft | 360 kts | 323° |
| 2026-04-28 13:40 | 28.32562 | 48.89695 | 18801 ft | 358 kts | 323° |
| 2026-04-28 13:41 | 28.34713 | 48.88274 | 18385 ft | 356 kts | 323° |
| 2026-04-28 13:41 | 28.36848 | 48.86860 | 17996 ft | 354 kts | 323° |
| 2026-04-28 13:41 | 28.38967 | 48.85457 | 17731 ft | 352 kts | 323° |
| 2026-04-28 13:41 | 28.41085 | 48.84053 | 17736 ft | 353 kts | 323° |
| 2026-04-28 13:42 | 28.43204 | 48.82648 | 17739 ft | 353 kts | 323° |
| 2026-04-28 13:42 | 28.45327 | 48.81240 | 17746 ft | 353 kts | 323° |
| 2026-04-28 13:42 | 28.47452 | 48.79827 | 17736 ft | 354 kts | 323° |
| 2026-04-28 13:42 | 28.49579 | 48.78413 | 17736 ft | 354 kts | 323° |
| 2026-04-28 13:43 | 28.51705 | 48.77000 | 17735 ft | 354 kts | 323° |
| 2026-04-28 13:43 | 28.53836 | 48.75584 | 17733 ft | 355 kts | 323° |
| 2026-04-28 13:43 | 28.55900 | 48.74073 | 17680 ft | 349 kts | 317° |
| 2026-04-28 13:43 | 28.57748 | 48.72326 | 17253 ft | 342 kts | 310° |
| 2026-04-28 13:44 | 28.59329 | 48.70393 | 16837 ft | 335 kts | 303° |
| 2026-04-28 13:44 | 28.60730 | 48.68298 | 16419 ft | 331 kts | 301° |
| 2026-04-28 13:44 | 28.62109 | 48.66213 | 16023 ft | 329 kts | 302° |
| 2026-04-28 13:44 | 28.63483 | 48.64146 | 15623 ft | 327 kts | 302° |
| 2026-04-28 13:45 | 28.64411 | 48.62754 | 15349 ft | 326 kts | 302° |
| 2026-04-28 13:45 | 28.65778 | 48.60707 | 14953 ft | 324 kts | 302° |
| 2026-04-28 13:45 | 28.67582 | 48.58007 | 14430 ft | 323 kts | 302° |
| 2026-04-28 13:45 | 28.68498 | 48.56632 | 14172 ft | 322 kts | 302° |
| 2026-04-28 13:46 | 28.69847 | 48.54601 | 13799 ft | 320 kts | 302° |
| 2026-04-28 13:46 | 28.71169 | 48.52606 | 13430 ft | 319 kts | 302° |
| 2026-04-28 13:46 | 28.72512 | 48.50598 | 13008 ft | 319 kts | 305° |
| 2026-04-28 13:46 | 28.74110 | 48.48829 | 12592 ft | 324 kts | 317° |
| 2026-04-28 13:47 | 28.76033 | 48.47463 | 12168 ft | 328 kts | 326° |
| 2026-04-28 13:47 | 28.78040 | 48.46228 | 11709 ft | 328 kts | 326° |
| 2026-04-28 13:47 | 28.80052 | 48.44984 | 11263 ft | 329 kts | 326° |
| 2026-04-28 13:47 | 28.82061 | 48.43740 | 10845 ft | 329 kts | 326° |
| 2026-04-28 13:48 | 28.84066 | 48.42498 | 10470 ft | 327 kts | 327° |
| 2026-04-28 13:48 | 28.86060 | 48.41263 | 10106 ft | 325 kts | 326° |
| 2026-04-28 13:48 | 28.88034 | 48.40037 | 9895 ft | 319 kts | 326° |
| 2026-04-28 13:48 | 28.89953 | 48.38846 | 9777 ft | 308 kts | 326° |
| 2026-04-28 13:49 | 28.91808 | 48.37692 | 9553 ft | 302 kts | 326° |
| 2026-04-28 13:49 | 28.93642 | 48.36546 | 9193 ft | 299 kts | 326° |
| 2026-04-28 13:49 | 28.95463 | 48.35407 | 8842 ft | 298 kts | 326° |
| 2026-04-28 13:49 | 28.97282 | 48.34271 | 8464 ft | 297 kts | 326° |
| 2026-04-28 13:50 | 28.99087 | 48.33145 | 8098 ft | 295 kts | 326° |
| 2026-04-28 13:50 | 29.00869 | 48.32037 | 7930 ft | 286 kts | 326° |
| 2026-04-28 13:50 | 29.02588 | 48.30972 | 7787 ft | 276 kts | 326° |
| 2026-04-28 13:50 | 29.04261 | 48.29932 | 7528 ft | 272 kts | 326° |
| 2026-04-28 13:51 | 29.05916 | 48.28901 | 7205 ft | 270 kts | 326° |
| 2026-04-28 13:51 | 29.07562 | 48.27872 | 6864 ft | 269 kts | 326° |
| 2026-04-28 13:51 | 29.09195 | 48.26848 | 6600 ft | 265 kts | 326° |
| 2026-04-28 13:51 | 29.10762 | 48.25874 | 6401 ft | 250 kts | 325° |
| 2026-04-28 13:52 | 29.12273 | 48.24930 | 6094 ft | 246 kts | 325° |
| 2026-04-28 13:52 | 29.13766 | 48.23990 | 5647 ft | 252 kts | 325° |
| 2026-04-28 13:52 | 29.15321 | 48.23008 | 5160 ft | 257 kts | 325° |
| 2026-04-28 13:52 | 29.16842 | 48.22058 | 5004 ft | 239 kts | 326° |
| 2026-04-28 13:53 | 29.18238 | 48.21192 | 5001 ft | 218 kts | 326° |
| 2026-04-28 13:53 | 29.19558 | 48.20369 | 5009 ft | 215 kts | 326° |
| 2026-04-28 13:53 | 29.20871 | 48.19546 | 5017 ft | 215 kts | 326° |
| 2026-04-28 13:53 | 29.22184 | 48.18721 | 5007 ft | 215 kts | 326° |
| 2026-04-28 13:54 | 29.23491 | 48.17899 | 5007 ft | 214 kts | 326° |
| 2026-04-28 13:54 | 29.24799 | 48.17078 | 5007 ft | 214 kts | 326° |
| 2026-04-28 13:54 | 29.26109 | 48.16258 | 5008 ft | 214 kts | 326° |
| 2026-04-28 13:54 | 29.27417 | 48.15438 | 5008 ft | 214 kts | 326° |
| 2026-04-28 13:55 | 29.28725 | 48.14616 | 5009 ft | 214 kts | 326° |
| 2026-04-28 13:55 | 29.30031 | 48.13797 | 5017 ft | 215 kts | 325° |
| 2026-04-28 13:55 | 29.31341 | 48.12976 | 4836 ft | 214 kts | 325° |
| 2026-04-28 13:55 | 29.32644 | 48.12159 | 4578 ft | 213 kts | 325° |
| 2026-04-28 13:56 | 29.33932 | 48.11352 | 4400 ft | 209 kts | 325° |
| 2026-04-28 13:56 | 29.35190 | 48.10566 | 4271 ft | 203 kts | 325° |
| 2026-04-28 13:56 | 29.36426 | 48.09789 | 4086 ft | 201 kts | 325° |
| 2026-04-28 13:56 | 29.37653 | 48.09018 | 3878 ft | 201 kts | 325° |
| 2026-04-28 13:57 | 29.38876 | 48.08246 | 3666 ft | 200 kts | 325° |
| 2026-04-28 13:57 | 29.40092 | 48.07473 | 3461 ft | 200 kts | 325° |
| 2026-04-28 13:57 | 29.41303 | 48.06702 | 3258 ft | 199 kts | 325° |
| 2026-04-28 13:57 | 29.42510 | 48.05937 | 3086 ft | 198 kts | 325° |
| 2026-04-28 13:58 | 29.43695 | 48.05136 | 3011 ft | 194 kts | 313° |
| 2026-04-28 13:58 | 29.44358 | 48.03892 | 3014 ft | 182 kts | 275° |
| 2026-04-28 13:58 | 29.44436 | 48.02451 | 3016 ft | 181 kts | 260° |
| 2026-04-28 13:58 | 29.44099 | 48.01089 | 3022 ft | 177 kts | 248° |
| 2026-04-28 13:59 | 29.43603 | 47.99816 | 2960 ft | 173 kts | 244° |
| 2026-04-28 13:59 | 29.43074 | 47.98578 | 2724 ft | 174 kts | 244° |
| 2026-04-28 13:59 | 29.42538 | 47.97336 | 2519 ft | 173 kts | 244° |
| 2026-04-28 13:59 | 29.41997 | 47.96098 | 2429 ft | 175 kts | 244° |
| 2026-04-28 14:00 | 29.41442 | 47.94861 | 2412 ft | 174 kts | 244° |
| 2026-04-28 14:00 | 29.40889 | 47.93645 | 2412 ft | 174 kts | 243° |
| 2026-04-28 14:00 | 29.40339 | 47.92421 | 2279 ft | 170 kts | 243° |
| 2026-04-28 14:00 | 29.39814 | 47.91210 | 2061 ft | 170 kts | 244° |
| 2026-04-28 14:01 | 29.39282 | 47.90002 | 2012 ft | 169 kts | 244° |
| 2026-04-28 14:01 | 29.38580 | 47.88913 | 2008 ft | 177 kts | 218° |
| 2026-04-28 14:01 | 29.37386 | 47.88473 | 2012 ft | 185 kts | 193° |
| 2026-04-28 14:01 | 29.36098 | 47.88342 | 2005 ft | 187 kts | 189° |
| 2026-04-28 14:02 | 29.34817 | 47.88257 | 1996 ft | 178 kts | 189° |
| 2026-04-28 14:02 | 29.33607 | 47.88452 | 1999 ft | 179 kts | 163° |
| 2026-04-28 14:02 | 29.32485 | 47.89044 | 2002 ft | 177 kts | 162° |
| 2026-04-28 14:02 | 29.31373 | 47.89639 | 1912 ft | 176 kts | 162° |
| 2026-04-28 14:03 | 29.30261 | 47.90233 | 1735 ft | 175 kts | 162° |
| 2026-04-28 14:03 | 29.29156 | 47.90821 | 1530 ft | 175 kts | 162° |
| 2026-04-28 14:03 | 29.28059 | 47.91406 | 1313 ft | 173 kts | 162° |
| 2026-04-28 14:03 | 29.26976 | 47.91983 | 1100 ft | 169 kts | 162° |
| 2026-04-28 14:04 | 29.25955 | 47.92529 | 875 ft | 156 kts | 157° |
| 2026-04-28 14:04 | 29.25013 | 47.93030 | 684 ft | 143 kts | 158° |
| 2026-04-28 14:04 | 29.24130 | 47.93499 | 505 ft | 137 kts | 153° |
| 2026-04-28 14:04 | 29.23265 | 47.93957 | 314 ft | 138 kts | 153° |
| 2026-04-28 14:05 | 29.22401 | 47.94413 | 175 ft | 133 kts | 152° |
| 2026-04-28 14:05 | 29.21695 | 47.94796 | 169 ft | 89 kts | 156° |
| 2026-04-28 14:05 | 29.21272 | 47.95025 | 166 ft | 54 kts | 155° |
| 2026-04-28 14:05 | 29.20964 | 47.95187 | 164 ft | 45 kts | 155° |
| 2026-04-28 14:06 | 29.20705 | 47.95335 | 168 ft | 34 kts | 148° |
| 2026-04-28 14:06 | 29.20566 | 47.95526 | 169 ft | 20 kts | 122° |
| 2026-04-28 14:06 | 29.20609 | 47.95612 | 171 ft | 16 kts | 347° |
| 2026-04-28 14:06 | 29.20701 | 47.95570 | 172 ft | 14 kts | 334° |
| 2026-04-28 14:07 | 29.20787 | 47.95523 | 171 ft | 13 kts | 335° |
| 2026-04-28 14:07 | 29.20863 | 47.95484 | 171 ft | 11 kts | 335° |
| 2026-04-28 14:07 | 29.20929 | 47.95449 | 171 ft | 10 kts | 335° |
| 2026-04-28 14:07 | 29.21000 | 47.95411 | 169 ft | 15 kts | 335° |
| 2026-04-28 14:08 | 29.21103 | 47.95356 | 166 ft | 17 kts | 334° |
| 2026-04-28 14:08 | 29.21216 | 47.95296 | 166 ft | 19 kts | 336° |
| 2026-04-28 14:08 | 29.21332 | 47.95236 | 164 ft | 18 kts | 334° |
| 2026-04-28 14:08 | 29.21440 | 47.95178 | 166 ft | 16 kts | 334° |
| 2026-04-28 14:09 | 29.21529 | 47.95129 | 168 ft | 13 kts | 336° |
| 2026-04-28 14:09 | 29.21608 | 47.95088 | 167 ft | 12 kts | 334° |
| 2026-04-28 14:09 | 29.21682 | 47.95048 | 167 ft | 11 kts | 335° |
| 2026-04-28 14:09 | 29.21747 | 47.95013 | 167 ft | 10 kts | 334° |
| 2026-04-28 14:10 | 29.21805 | 47.94982 | 166 ft | 9 kts | 334° |
| 2026-04-28 14:10 | 29.21865 | 47.94951 | 164 ft | 11 kts | 338° |
| 2026-04-28 14:10 | 29.21936 | 47.94971 | 161 ft | 12 kts | 51° |
| 2026-04-28 14:10 | 29.21977 | 47.95061 | 161 ft | 14 kts | 66° |
| 2026-04-28 14:11 | 29.22022 | 47.95167 | 160 ft | 16 kts | 66° |
| 2026-04-28 14:11 | 29.22071 | 47.95288 | 160 ft | 18 kts | 65° |
| 2026-04-28 14:11 | 29.22126 | 47.95422 | 160 ft | 19 kts | 64° |
| 2026-04-28 14:11 | 29.22185 | 47.95567 | 160 ft | 21 kts | 66° |
| 2026-04-28 14:12 | 29.22246 | 47.95722 | 160 ft | 22 kts | 63° |
| 2026-04-28 14:12 | 29.22312 | 47.95872 | 160 ft | 21 kts | 64° |
| 2026-04-28 14:12 | 29.22377 | 47.96031 | 160 ft | 23 kts | 65° |
| 2026-04-28 14:12 | 29.22440 | 47.96199 | 160 ft | 23 kts | 66° |
| 2026-04-28 14:13 | 29.22504 | 47.96342 | 160 ft | 17 kts | 63° |
| 2026-04-28 14:13 | 29.22557 | 47.96470 | 160 ft | 19 kts | 65° |
| 2026-04-28 14:13 | 29.22589 | 47.96547 | 160 ft | 9 kts | 64° |
| 2026-04-28 14:13 | 29.22625 | 47.96615 | 159 ft | 12 kts | 38° |
| 2026-04-28 14:14 | 29.22715 | 47.96605 | 160 ft | 13 kts | 333° |
| 2026-04-28 14:14 | 29.22791 | 47.96565 | 160 ft | 11 kts | 337° |
| 2026-04-28 14:14 | 29.22899 | 47.96508 | 161 ft | 17 kts | 335° |
| 2026-04-28 14:14 | 29.22991 | 47.96489 | 162 ft | 11 kts | 29° |
| 2026-04-28 14:15 | 29.23032 | 47.96559 | 163 ft | 14 kts | 62° |
| 2026-04-28 14:15 | 29.23078 | 47.96669 | 162 ft | 16 kts | 60° |
| 2026-04-28 14:15 | 29.23125 | 47.96789 | 165 ft | 16 kts | 65° |
| 2026-04-28 14:15 | 29.23190 | 47.96857 | 165 ft | 12 kts | 356° |
| 2026-04-28 14:16 | 29.23263 | 47.96822 | 164 ft | 11 kts | 335° |
| 2026-04-28 14:16 | 29.23329 | 47.96787 | 164 ft | 10 kts | 335° |
| 2026-04-28 14:16 | 29.23384 | 47.96758 | 164 ft | 8 kts | 335° |
| 2026-04-28 14:16 | 29.23447 | 47.96724 | 163 ft | 11 kts | 335° |
| 2026-04-28 14:17 | 29.23526 | 47.96682 | 163 ft | 18 kts | 335° |
| 2026-04-28 14:17 | 29.23671 | 47.96605 | 164 ft | 19 kts | 334° |
| 2026-04-28 14:17 | 29.23776 | 47.96547 | 164 ft | 13 kts | 335° |
| 2026-04-28 14:17 | 29.23865 | 47.96500 | 164 ft | 15 kts | 335° |
| 2026-04-28 14:18 | 29.23965 | 47.96447 | 164 ft | 17 kts | 334° |
| 2026-04-28 14:18 | 29.24077 | 47.96386 | 164 ft | 19 kts | 335° |
| 2026-04-28 14:18 | 29.24201 | 47.96322 | 164 ft | 20 kts | 339° |
| 2026-04-28 14:18 | 29.24334 | 47.96255 | 164 ft | 18 kts | 334° |
| 2026-04-28 14:19 | 29.24446 | 47.96190 | 165 ft | 19 kts | 332° |
| 2026-04-28 14:19 | 29.24568 | 47.96117 | 164 ft | 21 kts | 338° |
| 2026-04-28 14:19 | 29.24688 | 47.96089 | 165 ft | 15 kts | 25° |
| 2026-04-28 14:19 | 29.24728 | 47.96161 | 167 ft | 7 kts | 66° |
| 2026-04-28 14:20 | 29.24732 | 47.96173 | 167 ft | 0 kts | 66° |